Time;durP1;ratioP1;P1;durP2;ratioP2;P2;SDS_P1;SDS_P2;PMS_P1;PMS_P2;Temp;Humidity;BMP_temperature;BMP_pressure;BME280_temperature;BME280_humidity;BME280_pressure;Samples;Min_cycle;Max_cycle;Signal;HPM_P1;HPM_P2
2022/02/16 00:00:30;;;;;;;34.00;12.55;;;7.00;99.90;;;;;;5004404;28;20410;-84
2022/02/16 00:02:56;;;;;;;31.33;11.98;;;6.90;99.90;;;;;;4987158;28;20094;-86
2022/02/16 00:05:21;;;;;;;31.02;11.65;;;6.90;99.90;;;;;;4984340;28;20049;-84
2022/02/16 00:07:50;;;;;;;39.88;11.95;;;6.90;99.90;;;;;;4990859;28;20254;-85
2022/02/16 00:10:17;;;;;;;35.97;11.48;;;6.90;99.90;;;;;;4988804;28;20097;-85
2022/02/16 00:12:43;;;;;;;37.80;10.48;;;7.00;99.90;;;;;;4998638;28;20515;-86
2022/02/16 00:15:12;;;;;;;51.88;12.60;;;6.90;99.90;;;;;;5004917;28;20039;-85
2022/02/16 00:17:37;;;;;;;32.92;11.07;;;6.90;99.90;;;;;;5001980;28;20579;-85
2022/02/16 00:20:05;;;;;;;35.53;10.98;;;6.90;99.90;;;;;;5000140;28;20033;-84
2022/02/16 00:22:31;;;;;;;35.63;13.70;;;6.90;99.90;;;;;;4984045;28;20135;-85
2022/02/16 00:24:56;;;;;;;39.83;11.40;;;6.90;99.90;;;;;;4986127;28;20123;-86
2022/02/16 00:27:22;;;;;;;39.20;12.35;;;6.90;99.90;;;;;;4970459;28;20129;-85
2022/02/16 00:29:48;;;;;;;49.15;12.52;;;7.00;99.90;;;;;;5013999;28;20044;-85
2022/02/16 00:32:14;;;;;;;33.58;10.95;;;6.90;99.90;;;;;;5005431;28;20403;-87
2022/02/16 00:34:40;;;;;;;33.25;9.65;;;6.90;99.90;;;;;;4999704;28;20072;-86
2022/02/16 00:37:05;;;;;;;37.22;10.75;;;6.90;99.90;;;;;;5021786;28;20065;-83
2022/02/16 00:39:32;;;;;;;34.63;10.18;;;6.90;99.90;;;;;;5007007;28;20411;-85
2022/02/16 00:41:59;;;;;;;36.03;10.23;;;6.90;99.90;;;;;;5004210;28;20075;-87
2022/02/16 00:44:25;;;;;;;29.95;9.82;;;6.90;99.90;;;;;;4987756;28;20103;-86
2022/02/16 00:46:51;;;;;;;33.83;10.93;;;6.90;99.90;;;;;;4986726;28;20048;-86
2022/02/16 00:49:18;;;;;;;38.78;10.23;;;6.90;99.90;;;;;;4988619;28;20215;-86
2022/02/16 00:51:44;;;;;;;33.10;8.98;;;6.90;99.90;;;;;;4974384;28;20029;-86
2022/02/16 00:54:11;;;;;;;34.05;9.25;;;6.90;99.90;;;;;;5019251;28;20617;-86
2022/02/16 00:56:37;;;;;;;30.67;8.55;;;6.90;99.90;;;;;;5005233;28;20052;-85
2022/02/16 00:59:03;;;;;;;38.05;9.40;;;6.80;99.90;;;;;;5005431;28;20152;-87
2022/02/16 01:01:29;;;;;;;27.80;7.60;;;6.80;99.90;;;;;;4990714;28;20140;-84
2022/02/16 01:03:55;;;;;;;34.35;9.38;;;6.80;99.90;;;;;;5006687;28;20040;-86
2022/02/16 01:06:21;;;;;;;29.70;8.30;;;6.80;99.90;;;;;;5004843;28;20663;-84
2022/02/16 01:08:46;;;;;;;34.70;8.70;;;6.80;99.90;;;;;;5003342;28;20045;-86
2022/02/16 01:11:14;;;;;;;38.88;7.75;;;6.90;99.90;;;;;;5000799;28;20045;-86
2022/02/16 01:13:40;;;;;;;29.10;7.43;;;6.80;99.90;;;;;;5000130;28;20073;-84
2022/02/16 01:16:05;;;;;;;28.25;7.03;;;6.80;99.90;;;;;;4990546;28;20522;-85
2022/02/16 01:18:32;;;;;;;30.23;7.18;;;6.80;99.90;;;;;;4968966;28;20040;-85
2022/02/16 01:20:58;;;;;;;39.85;7.60;;;6.80;99.90;;;;;;5018459;28;20044;-85
2022/02/16 01:23:24;;;;;;;40.47;6.75;;;6.80;99.90;;;;;;5002877;28;20029;-85
2022/02/16 01:25:51;;;;;;;34.65;6.63;;;6.80;99.90;;;;;;4988360;28;20041;-86
2022/02/16 01:28:16;;;;;;;28.13;7.00;;;6.80;99.90;;;;;;5004245;28;20045;-84
2022/02/16 01:30:42;;;;;;;32.08;6.97;;;6.80;99.90;;;;;;4984686;28;20736;-86
2022/02/16 01:33:08;;;;;;;38.28;8.30;;;6.80;99.90;;;;;;5000192;28;20044;-85
2022/02/16 01:35:34;;;;;;;33.72;7.32;;;6.80;99.90;;;;;;4993180;28;21613;-85
2022/02/16 01:38:00;;;;;;;26.35;7.20;;;6.80;99.90;;;;;;5004150;28;20063;-86
2022/02/16 01:40:25;;;;;;;29.83;7.75;;;6.80;99.90;;;;;;5004604;28;20037;-86
2022/02/16 01:42:51;;;;;;;34.05;8.80;;;6.80;99.90;;;;;;4988137;28;20087;-86
2022/02/16 01:45:24;;;;;;;26.15;9.60;;;6.80;99.90;;;;;;4988029;28;20426;-84
2022/02/16 01:47:50;;;;;;;26.48;9.07;;;6.80;99.90;;;;;;4995781;28;20077;-85
2022/02/16 01:50:16;;;;;;;29.30;8.95;;;6.80;99.90;;;;;;5006739;28;20612;-85
2022/02/16 01:52:41;;;;;;;33.20;9.65;;;6.80;99.90;;;;;;5005640;28;20045;-84
2022/02/16 01:55:09;;;;;;;34.38;10.85;;;6.80;99.90;;;;;;5008858;28;20063;-85
2022/02/16 01:57:36;;;;;;;32.28;11.52;;;6.80;99.90;;;;;;5009750;28;20053;-85
2022/02/16 02:00:03;;;;;;;33.47;13.90;;;6.80;99.90;;;;;;4995287;28;20140;-86
2022/02/16 02:02:29;;;;;;;33.55;14.13;;;6.80;99.90;;;;;;4998845;28;20033;-86
2022/02/16 02:04:55;;;;;;;43.22;16.35;;;6.90;99.90;;;;;;4993570;28;20037;-86
2022/02/16 02:07:21;;;;;;;38.72;15.57;;;6.90;99.90;;;;;;4977898;28;20047;-87
2022/02/16 02:09:48;;;;;;;50.55;18.35;;;6.90;99.90;;;;;;4987597;28;20124;-84
2022/02/16 02:12:14;;;;;;;40.92;15.85;;;7.00;99.90;;;;;;4993592;28;20045;-87
2022/02/16 02:14:40;;;;;;;32.55;17.77;;;6.90;99.90;;;;;;5005934;28;20037;-86
2022/02/16 02:17:06;;;;;;;35.85;15.38;;;6.90;99.90;;;;;;4986768;28;20044;-86
2022/02/16 02:19:32;;;;;;;41.65;17.50;;;7.00;99.90;;;;;;5006614;28;20332;-87
2022/02/16 02:22:00;;;;;;;34.22;18.48;;;6.90;99.90;;;;;;5007115;28;20041;-87
2022/02/16 02:24:26;;;;;;;36.15;17.15;;;7.00;99.90;;;;;;5009333;28;20045;-87
2022/02/16 02:26:52;;;;;;;38.15;18.10;;;7.00;99.90;;;;;;4989288;28;20033;-85
2022/02/16 02:29:17;;;;;;;36.72;18.70;;;7.10;99.90;;;;;;4984446;28;20106;-85
2022/02/16 02:31:43;;;;;;;44.92;19.60;;;7.10;99.90;;;;;;4985369;28;20045;-85
2022/02/16 02:34:09;;;;;;;34.58;20.80;;;7.10;99.90;;;;;;5003882;28;20112;-87
2022/02/16 02:36:35;;;;;;;40.25;21.75;;;7.10;99.90;;;;;;4977081;28;20056;-85
2022/02/16 02:39:01;;;;;;;35.03;20.13;;;7.20;99.90;;;;;;5003973;28;20041;-86
2022/02/16 02:41:27;;;;;;;39.80;20.88;;;7.20;99.90;;;;;;4973441;28;20395;-85
2022/02/16 02:43:52;;;;;;;44.33;22.92;;;7.20;99.90;;;;;;4991800;28;20033;-84
2022/02/16 02:46:19;;;;;;;44.40;24.83;;;7.20;99.90;;;;;;5017408;28;20247;-86
2022/02/16 02:48:46;;;;;;;44.00;23.83;;;7.30;99.90;;;;;;4988343;28;20049;-88
2022/02/16 02:51:12;;;;;;;41.72;25.63;;;7.30;99.90;;;;;;5005253;28;20044;-84
2022/02/16 02:53:39;;;;;;;45.58;26.58;;;7.30;99.90;;;;;;5000077;28;20068;-85
2022/02/16 02:56:05;;;;;;;44.95;25.20;;;7.30;99.90;;;;;;5009282;28;20037;-87
2022/02/16 02:58:31;;;;;;;47.40;26.77;;;7.30;99.90;;;;;;4985379;28;20502;-85
2022/02/16 03:00:58;;;;;;;43.70;26.42;;;7.30;99.90;;;;;;4988122;28;20131;-86
2022/02/16 03:03:25;;;;;;;44.00;23.88;;;7.30;99.90;;;;;;4968625;28;20083;-85
2022/02/16 03:05:51;;;;;;;47.38;26.17;;;7.40;99.90;;;;;;5004161;28;20175;-86
2022/02/16 03:08:17;;;;;;;51.97;28.85;;;7.40;99.90;;;;;;4987081;28;20060;-84
2022/02/16 03:10:43;;;;;;;44.30;25.08;;;7.50;99.90;;;;;;4989337;28;20073;-85
2022/02/16 03:13:19;;;;;;;43.78;25.42;;;7.40;99.90;;;;;;4969047;28;20037;-86
2022/02/16 03:15:52;;;;;;;56.35;29.23;;;7.50;99.90;;;;;;5005169;28;20041;-86
2022/02/16 03:18:23;;;;;;;51.65;27.13;;;7.50;99.90;;;;;;5006691;28;20092;-85
2022/02/16 03:20:51;;;;;;;48.90;26.55;;;7.50;99.90;;;;;;5007169;28;20045;-86
2022/02/16 03:23:17;;;;;;;55.00;28.63;;;7.50;99.90;;;;;;4981154;28;20049;-85
2022/02/16 03:25:43;;;;;;;53.15;26.13;;;7.50;99.90;;;;;;4981717;28;20041;-86
2022/02/16 03:28:09;;;;;;;47.13;25.48;;;7.50;99.90;;;;;;5020129;28;20136;-86
2022/02/16 03:30:35;;;;;;;55.00;26.27;;;7.60;99.90;;;;;;5007999;28;20224;-85
2022/02/16 03:33:05;;;;;;;58.28;27.33;;;7.60;99.90;;;;;;4983115;28;20032;-88
2022/02/16 03:35:31;;;;;;;48.75;25.77;;;7.60;99.90;;;;;;5004844;28;20068;-86
2022/02/16 03:37:58;;;;;;;46.85;23.90;;;7.60;99.90;;;;;;5003697;28;20044;-86
2022/02/16 03:40:24;;;;;;;48.58;24.60;;;7.60;99.90;;;;;;5017115;28;20087;-85
2022/02/16 03:42:50;;;;;;;47.72;23.23;;;7.60;99.90;;;;;;5004835;28;20397;-87
2022/02/16 03:45:16;;;;;;;46.33;24.27;;;7.60;99.90;;;;;;5005011;28;20064;-87
2022/02/16 03:47:43;;;;;;;50.80;24.67;;;7.70;99.90;;;;;;5003124;28;20055;-85
2022/02/16 03:50:09;;;;;;;47.85;22.52;;;7.60;99.90;;;;;;4985975;28;20036;-86
2022/02/16 03:52:35;;;;;;;45.53;22.67;;;7.70;99.90;;;;;;5001602;28;20048;-85
2022/02/16 03:55:00;;;;;;;49.28;24.33;;;7.70;99.90;;;;;;4970335;28;20135;-87
2022/02/16 03:57:27;;;;;;;37.70;20.88;;;7.70;99.90;;;;;;4985949;28;20041;-86
2022/02/16 03:59:53;;;;;;;41.53;22.70;;;7.70;99.90;;;;;;5003085;28;20215;-86
2022/02/16 04:02:19;;;;;;;40.83;20.05;;;7.70;99.90;;;;;;4968989;28;20120;-86
2022/02/16 04:04:44;;;;;;;45.78;21.80;;;7.70;99.90;;;;;;4980409;28;20045;-86
2022/02/16 04:07:10;;;;;;;39.28;19.98;;;7.70;99.90;;;;;;4968399;28;20436;-86
2022/02/16 04:09:36;;;;;;;43.70;21.58;;;7.70;99.90;;;;;;4986449;28;20045;-86
2022/02/16 04:12:02;;;;;;;40.10;19.85;;;7.70;99.90;;;;;;4958239;28;20135;-86
2022/02/16 04:14:27;;;;;;;39.50;20.08;;;7.70;99.90;;;;;;4996423;28;20051;-88
2022/02/16 04:16:53;;;;;;;42.38;21.30;;;7.70;99.90;;;;;;4989868;28;20120;-85
2022/02/16 04:19:19;;;;;;;40.00;19.33;;;7.70;99.90;;;;;;4981274;28;20033;-86
2022/02/16 04:21:45;;;;;;;44.28;19.55;;;7.70;99.90;;;;;;4970208;28;20068;-86
2022/02/16 04:24:11;;;;;;;40.03;18.92;;;7.70;99.90;;;;;;4984527;28;20067;-86
2022/02/16 04:26:37;;;;;;;34.72;16.75;;;7.70;99.90;;;;;;4999407;28;20869;-87
2022/02/16 04:29:03;;;;;;;33.08;16.80;;;7.70;99.90;;;;;;4981658;28;20045;-86
2022/02/16 04:31:28;;;;;;;34.38;16.52;;;7.70;99.90;;;;;;4983963;28;20063;-87
2022/02/16 04:33:54;;;;;;;30.98;14.05;;;7.70;99.90;;;;;;4988281;28;20032;-86
2022/02/16 04:36:25;;;;;;;29.48;15.35;;;7.70;99.90;;;;;;4970062;28;20591;-85
2022/02/16 04:38:56;;;;;;;31.25;14.93;;;7.60;99.90;;;;;;4981258;28;20110;-87
2022/02/16 04:41:22;;;;;;;34.83;15.77;;;7.60;99.90;;;;;;5015503;28;20307;-86
2022/02/16 04:43:48;;;;;;;29.52;13.73;;;7.60;99.90;;;;;;4993438;28;20380;-87
2022/02/16 04:46:14;;;;;;;33.03;14.70;;;7.60;99.90;;;;;;4987318;28;20079;-87
2022/02/16 04:48:40;;;;;;;33.20;13.85;;;7.60;99.90;;;;;;4989858;28;20041;-86
2022/02/16 04:51:06;;;;;;;30.92;13.85;;;7.60;99.90;;;;;;4965531;28;20126;-86
2022/02/16 04:53:35;;;;;;;29.38;14.10;;;7.60;99.90;;;;;;4999169;28;20522;-85
2022/02/16 04:56:05;;;;;;;24.15;12.10;;;7.60;99.90;;;;;;5000348;28;20041;-85
2022/02/16 04:58:31;;;;;;;25.35;13.27;;;7.60;99.90;;;;;;4992103;28;20064;-87
2022/02/16 05:00:57;;;;;;;27.70;12.85;;;7.60;99.90;;;;;;4997934;28;20049;-86
2022/02/16 05:03:23;;;;;;;26.65;13.82;;;7.70;99.90;;;;;;4982528;28;20049;-86
2022/02/16 05:05:49;;;;;;;25.67;12.82;;;7.70;99.90;;;;;;5016937;28;20041;-86
2022/02/16 05:08:15;;;;;;;26.30;12.98;;;7.70;99.90;;;;;;4998914;28;20049;-87
2022/02/16 05:10:41;;;;;;;24.25;12.93;;;7.70;99.90;;;;;;4967191;28;20086;-85
2022/02/16 05:13:07;;;;;;;27.77;14.15;;;7.70;99.90;;;;;;4972901;28;20120;-85
2022/02/16 05:15:33;;;;;;;29.20;13.93;;;7.70;99.90;;;;;;4995808;28;20561;-87
2022/02/16 05:17:59;;;;;;;30.77;15.38;;;7.80;99.90;;;;;;5013771;28;20045;-86
2022/02/16 05:20:25;;;;;;;31.50;15.40;;;7.80;99.90;;;;;;4983737;28;20033;-87
2022/02/16 05:22:51;;;;;;;26.35;13.63;;;7.80;99.90;;;;;;4983276;28;20037;-87
2022/02/16 05:25:17;;;;;;;32.40;16.17;;;7.80;99.90;;;;;;4972716;28;20454;-87
2022/02/16 05:27:43;;;;;;;33.85;16.52;;;7.80;99.90;;;;;;5005426;28;20053;-86
2022/02/16 05:30:09;;;;;;;34.78;17.05;;;7.90;99.90;;;;;;4987496;28;20063;-86
2022/02/16 05:32:37;;;;;;;31.23;17.55;;;7.90;99.90;;;;;;5002332;28;20095;-85
2022/02/16 05:35:03;;;;;;;36.60;16.90;;;7.90;99.90;;;;;;4991494;28;20043;-86
2022/02/16 05:37:29;;;;;;;30.70;16.05;;;7.90;99.90;;;;;;4994797;28;20042;-86
2022/02/16 05:39:55;;;;;;;33.45;17.20;;;8.00;99.90;;;;;;5002874;28;20037;-86
2022/02/16 05:42:20;;;;;;;33.97;18.27;;;8.00;99.90;;;;;;4990453;28;20053;-86
2022/02/16 05:44:46;;;;;;;27.60;16.40;;;8.00;99.90;;;;;;4974326;28;20075;-85
2022/02/16 05:47:12;;;;;;;35.15;18.20;;;8.10;99.90;;;;;;5008693;28;20076;-84
2022/02/16 05:49:38;;;;;;;37.10;19.27;;;8.10;99.90;;;;;;5010262;28;20044;-86
2022/02/16 05:52:04;;;;;;;34.22;20.83;;;8.10;99.90;;;;;;4987959;28;20369;-87
2022/02/16 05:54:30;;;;;;;35.88;19.45;;;8.10;99.90;;;;;;5005446;28;20378;-85
2022/02/16 05:56:55;;;;;;;36.05;19.42;;;8.10;99.90;;;;;;5002962;28;20140;-85
2022/02/16 05:59:21;;;;;;;38.88;19.70;;;8.20;99.90;;;;;;4995124;28;20101;-85
2022/02/16 06:01:47;;;;;;;37.17;18.73;;;8.20;99.90;;;;;;4982987;28;20044;-85
2022/02/16 06:04:16;;;;;;;36.53;17.73;;;8.20;99.90;;;;;;4984461;28;20045;-86
2022/02/16 06:06:42;;;;;;;34.78;18.42;;;8.20;99.90;;;;;;4976124;28;20061;-88
2022/02/16 06:09:08;;;;;;;36.40;18.80;;;8.20;99.90;;;;;;4986427;28;20102;-86
2022/02/16 06:11:34;;;;;;;35.53;17.90;;;8.20;99.90;;;;;;5007662;28;20072;-86
2022/02/16 06:14:00;;;;;;;35.95;18.45;;;8.20;99.90;;;;;;4987415;28;20044;-85
2022/02/16 06:16:26;;;;;;;39.30;20.35;;;8.20;99.90;;;;;;4988672;28;20041;-87
2022/02/16 06:18:52;;;;;;;37.92;20.38;;;8.20;99.90;;;;;;5005330;28;20048;-87
2022/02/16 06:21:18;;;;;;;34.42;19.27;;;8.20;99.90;;;;;;4993628;28;20495;-84
2022/02/16 06:23:44;;;;;;;32.13;17.23;;;8.20;99.90;;;;;;4990580;28;20049;-87
2022/02/16 06:26:10;;;;;;;38.30;17.98;;;8.20;99.90;;;;;;5004913;28;20365;-87
2022/02/16 06:28:37;;;;;;;32.63;17.50;;;8.20;99.90;;;;;;4969024;28;20113;-88
2022/02/16 06:31:04;;;;;;;33.97;17.80;;;8.20;99.90;;;;;;5007111;28;20056;-86
2022/02/16 06:33:31;;;;;;;31.15;15.77;;;8.20;99.90;;;;;;5000655;28;20179;-85
2022/02/16 06:35:58;;;;;;;37.88;17.88;;;8.20;99.90;;;;;;5005365;28;20041;-86
2022/02/16 06:38:24;;;;;;;26.40;14.20;;;8.20;99.90;;;;;;5000155;28;20469;-86
2022/02/16 06:40:50;;;;;;;25.65;14.50;;;8.20;99.90;;;;;;5007342;28;20068;-84
2022/02/16 06:43:16;;;;;;;27.98;13.98;;;8.20;99.90;;;;;;4988473;28;20053;-84
2022/02/16 06:45:42;;;;;;;25.60;13.00;;;8.20;99.90;;;;;;5001970;28;20033;-85
2022/02/16 06:48:08;;;;;;;23.33;13.35;;;8.20;99.90;;;;;;5004262;28;20033;-84
2022/02/16 06:50:34;;;;;;;24.25;11.98;;;8.20;99.90;;;;;;4986025;28;20503;-88
2022/02/16 06:53:00;;;;;;;22.75;11.18;;;8.20;99.90;;;;;;4972669;28;20119;-84
2022/02/16 06:55:26;;;;;;;18.05;10.52;;;8.20;99.90;;;;;;4988546;28;20127;-85
2022/02/16 06:57:51;;;;;;;20.60;11.13;;;8.20;99.90;;;;;;4990048;28;20045;-85
2022/02/16 07:00:17;;;;;;;17.83;10.25;;;8.20;99.90;;;;;;5004107;28;20146;-85
2022/02/16 07:02:47;;;;;;;14.52;9.00;;;8.20;99.90;;;;;;4985596;28;20122;-85
2022/02/16 07:05:14;;;;;;;16.10;9.45;;;8.20;99.90;;;;;;4986226;28;20045;-84
2022/02/16 07:07:40;;;;;;;13.98;9.35;;;8.20;99.90;;;;;;4990141;28;20550;-86
2022/02/16 07:10:07;;;;;;;18.20;9.38;;;8.30;99.90;;;;;;4985938;28;20040;-85
2022/02/16 07:12:33;;;;;;;16.88;9.07;;;8.30;99.90;;;;;;4998433;28;20334;-85
2022/02/16 07:14:58;;;;;;;14.10;9.10;;;8.30;99.90;;;;;;4985731;28;20037;-85
2022/02/16 07:17:25;;;;;;;17.20;8.70;;;8.30;99.90;;;;;;4990722;28;20052;-86
2022/02/16 07:19:50;;;;;;;15.23;8.85;;;8.40;99.90;;;;;;4986677;28;20111;-85
2022/02/16 07:22:16;;;;;;;14.40;7.55;;;8.40;99.90;;;;;;5008201;28;20121;-84
2022/02/16 07:24:42;;;;;;;15.82;8.82;;;8.40;99.90;;;;;;5004147;28;20094;-87
2022/02/16 07:27:08;;;;;;;17.15;8.57;;;8.40;99.90;;;;;;4988791;28;20044;-85
2022/02/16 07:29:34;;;;;;;14.32;7.97;;;8.40;99.90;;;;;;4986377;28;20416;-85
2022/02/16 07:32:00;;;;;;;14.57;8.20;;;8.50;99.90;;;;;;4987324;28;20048;-86
2022/02/16 07:34:31;;;;;;;14.30;8.15;;;8.50;99.90;;;;;;5003822;28;20036;-85
2022/02/16 07:37:01;;;;;;;16.80;8.55;;;8.60;99.90;;;;;;5005098;28;20041;-84
2022/02/16 07:39:28;;;;;;;12.45;6.70;;;8.60;99.90;;;;;;5022043;28;20029;-86
2022/02/16 07:41:55;;;;;;;14.80;6.93;;;8.60;99.90;;;;;;4989996;28;20047;-85
2022/02/16 07:44:21;;;;;;;11.82;6.90;;;8.70;99.90;;;;;;5005793;28;20467;-86
2022/02/16 07:46:47;;;;;;;9.80;6.18;;;8.70;99.90;;;;;;4989976;28;20043;-87
2022/02/16 07:49:12;;;;;;;13.02;7.38;;;8.70;99.90;;;;;;5002290;28;20047;-87
2022/02/16 07:51:38;;;;;;;10.63;6.93;;;8.70;99.90;;;;;;5006137;28;20041;-86
2022/02/16 07:54:04;;;;;;;9.07;5.85;;;8.70;99.90;;;;;;4985853;28;20515;-89
2022/02/16 07:56:34;;;;;;;8.55;5.50;;;8.80;99.90;;;;;;4988900;28;20039;-85
2022/02/16 07:59:00;;;;;;;9.00;5.10;;;8.80;99.90;;;;;;4970624;28;20079;-85
2022/02/16 08:01:26;;;;;;;10.70;5.43;;;8.90;99.90;;;;;;4986851;28;20492;-86
2022/02/16 08:03:51;;;;;;;9.50;5.53;;;8.90;99.90;;;;;;5003557;28;20067;-84
2022/02/16 08:06:17;;;;;;;7.53;5.30;;;8.90;99.90;;;;;;5006839;28;20036;-85
2022/02/16 08:08:43;;;;;;;8.93;5.00;;;8.90;99.90;;;;;;5008469;28;20055;-87
2022/02/16 08:11:09;;;;;;;7.20;4.40;;;9.00;99.90;;;;;;5015795;28;20032;-89
2022/02/16 08:13:34;;;;;;;8.38;4.63;;;9.00;99.90;;;;;;4984156;28;20460;-86
2022/02/16 08:16:00;;;;;;;9.32;5.40;;;9.00;99.90;;;;;;4981197;28;20087;-88
2022/02/16 08:18:27;;;;;;;8.93;5.05;;;9.00;99.90;;;;;;4986758;28;20571;-88
2022/02/16 08:20:53;;;;;;;8.23;5.05;;;9.10;99.90;;;;;;4998400;28;20036;-87
2022/02/16 08:23:22;;;;;;;7.72;4.22;;;9.10;99.90;;;;;;4972174;28;20033;-89
2022/02/16 08:25:48;;;;;;;7.35;3.58;;;9.10;99.90;;;;;;5001747;28;20068;-84
2022/02/16 08:28:16;;;;;;;5.65;3.72;;;9.20;99.90;;;;;;4974938;28;20068;-87
2022/02/16 08:30:42;;;;;;;6.25;3.50;;;9.20;99.90;;;;;;5020198;28;20029;-87
2022/02/16 08:33:12;;;;;;;6.75;3.40;;;9.20;99.90;;;;;;5000817;28;20087;-86
2022/02/16 08:35:38;;;;;;;6.63;3.45;;;9.30;99.90;;;;;;5001446;28;20514;-87
2022/02/16 08:38:03;;;;;;;5.55;3.45;;;9.30;99.90;;;;;;4984642;28;20037;-88
2022/02/16 08:40:29;;;;;;;6.00;3.80;;;9.30;99.90;;;;;;4989424;28;20033;-86
2022/02/16 08:42:55;;;;;;;5.00;3.60;;;9.40;99.90;;;;;;4985473;28;20090;-87
2022/02/16 08:45:24;;;;;;;7.30;3.75;;;9.40;99.90;;;;;;5005797;28;20037;-89
2022/02/16 08:47:50;;;;;;;7.85;3.45;;;9.40;99.90;;;;;;4988218;28;20495;-87
2022/02/16 08:50:16;;;;;;;6.93;4.15;;;9.40;99.90;;;;;;5002886;28;20033;-90
2022/02/16 08:52:41;;;;;;;7.75;4.15;;;9.50;99.90;;;;;;5005060;28;20131;-89
2022/02/16 08:55:08;;;;;;;7.53;4.40;;;9.50;99.90;;;;;;5002716;28;20928;-86
2022/02/16 08:57:36;;;;;;;7.20;4.47;;;9.60;99.90;;;;;;4987926;28;20497;-90
2022/02/16 09:00:04;;;;;;;6.15;3.97;;;9.60;99.90;;;;;;5006897;28;20120;-88
2022/02/16 09:02:30;;;;;;;7.22;5.00;;;9.70;99.90;;;;;;5002318;28;20068;-86
2022/02/16 09:04:56;;;;;;;6.13;4.43;;;9.70;99.90;;;;;;4986836;28;20079;-88
2022/02/16 09:07:28;;;;;;;8.05;5.28;;;9.70;99.90;;;;;;5008564;28;20032;-86
2022/02/16 09:09:54;;;;;;;5.38;4.25;;;9.70;99.90;;;;;;4991298;28;20045;-87
2022/02/16 09:12:19;;;;;;;6.10;3.78;;;9.70;99.90;;;;;;5009119;28;20036;-87
2022/02/16 09:14:45;;;;;;;3.97;3.35;;;9.70;99.90;;;;;;4993687;28;20059;-89
2022/02/16 09:17:11;;;;;;;5.45;3.85;;;9.80;99.90;;;;;;5008846;28;20417;-88
2022/02/16 09:19:38;;;;;;;6.07;3.85;;;9.80;99.90;;;;;;4993292;28;20041;-90
2022/02/16 09:22:04;;;;;;;6.72;4.43;;;9.90;99.90;;;;;;5010624;28;20701;-90
2022/02/16 09:24:30;;;;;;;5.70;4.60;;;9.80;99.90;;;;;;5012384;28;20063;-86
2022/02/16 09:26:56;;;;;;;6.05;5.13;;;9.90;99.90;;;;;;4994744;28;20049;-89
2022/02/16 09:29:23;;;;;;;7.30;5.47;;;9.90;99.90;;;;;;5010638;28;20060;-89
2022/02/16 09:31:50;;;;;;;9.40;6.20;;;9.90;99.90;;;;;;4991356;28;20291;-87
2022/02/16 09:34:17;;;;;;;10.20;6.90;;;9.90;99.90;;;;;;5023173;28;20040;-88
2022/02/16 09:36:43;;;;;;;12.23;7.60;;;10.00;99.90;;;;;;5001910;23;20052;-89
2022/02/16 09:39:09;;;;;;;12.38;8.30;;;10.00;99.90;;;;;;4998431;28;20037;-89
2022/02/16 09:41:35;;;;;;;12.38;8.55;;;10.00;99.90;;;;;;4994687;28;20040;-89
2022/02/16 09:44:01;;;;;;;18.55;9.68;;;10.00;99.90;;;;;;4978271;28;20041;-87
2022/02/16 09:46:28;;;;;;;22.10;11.13;;;10.10;99.90;;;;;;5010032;28;20367;-86
2022/02/16 09:48:55;;;;;;;18.55;10.77;;;10.10;99.90;;;;;;4994536;28;20037;-89
2022/02/16 09:51:21;;;;;;;17.58;10.85;;;10.20;99.90;;;;;;5012188;28;20094;-89
2022/02/16 09:53:47;;;;;;;26.80;10.23;;;10.20;99.90;;;;;;4991812;28;20414;-91
2022/02/16 09:56:13;;;;;;;23.13;10.55;;;10.20;99.90;;;;;;4992915;28;20069;-92
2022/02/16 09:58:39;;;;;;;17.58;9.55;;;10.30;99.90;;;;;;5005375;28;20116;-90
2022/02/16 10:01:15;;;;;;;18.58;9.40;;;10.30;99.90;;;;;;5028262;28;20438;-90
2022/02/16 10:04:03;;;;;;;21.17;9.30;;;10.40;99.90;;;;;;5010521;28;20041;-89
2022/02/16 10:06:48;;;;;;;25.50;10.48;;;10.40;99.90;;;;;;5003458;28;20337;-89
2022/02/16 10:09:32;;;;;;;22.23;8.95;;;10.50;99.90;;;;;;5009920;28;21989;-87
2022/02/16 10:12:03;;;;;;;18.70;8.50;;;10.60;99.90;;;;;;5027188;28;20044;-89
2022/02/16 10:14:35;;;;;;;27.10;7.95;;;10.60;99.90;;;;;;5011477;28;20040;-88
2022/02/16 10:17:21;;;;;;;19.17;7.00;;;10.70;99.90;;;;;;5015662;28;20187;-88
2022/02/16 10:19:50;;;;;;;17.65;6.40;;;10.70;99.90;;;;;;5008550;28;20326;-89
2022/02/16 10:22:17;;;;;;;14.30;5.78;;;10.80;99.90;;;;;;5013306;28;20033;-88
2022/02/16 10:24:46;;;;;;;21.35;5.72;;;10.80;99.90;;;;;;4994435;28;20049;-87
2022/02/16 10:27:13;;;;;;;19.45;5.28;;;10.90;99.90;;;;;;5012273;28;20041;-89
2022/02/16 10:29:41;;;;;;;18.45;5.03;;;10.90;99.90;;;;;;4977543;28;20101;-87
2022/02/16 10:32:18;;;;;;;17.33;4.60;;;11.00;99.90;;;;;;4978830;28;20036;-88
2022/02/16 10:34:48;;;;;;;14.65;4.38;;;11.10;99.90;;;;;;5012405;28;20037;-89
2022/02/16 10:37:19;;;;;;;16.88;3.47;;;11.10;99.90;;;;;;5002065;28;20052;-89
2022/02/16 10:40:15;;;;;;;15.80;3.60;;;11.20;99.90;;;;;;4999720;28;20052;-87
2022/02/16 10:42:54;;;;;;;17.63;2.97;;;11.20;99.90;;;;;;5012458;28;20041;-89
2022/02/16 10:45:21;;;;;;;15.18;3.10;;;11.20;99.90;;;;;;5014931;28;20037;-89
2022/02/16 10:48:02;;;;;;;15.43;3.75;;;11.20;99.90;;;;;;4994923;28;20415;-90
2022/02/16 10:50:48;;;;;;;15.35;3.70;;;11.20;99.90;;;;;;5009374;28;20041;-93
2022/02/16 10:53:31;;;;;;;15.85;3.50;;;11.30;99.90;;;;;;5009452;28;20066;-86
2022/02/16 10:55:57;;;;;;;14.50;2.92;;;11.30;99.90;;;;;;5005213;28;20033;-85
2022/02/16 10:58:26;;;;;;;16.42;3.13;;;11.40;99.90;;;;;;4979751;28;20124;-88
2022/02/16 11:00:56;;;;;;;14.40;2.88;;;11.40;99.90;;;;;;5009632;28;20028;-91
2022/02/16 11:03:33;;;;;;;18.60;3.08;;;11.40;99.90;;;;;;5007838;28;20048;-88
2022/02/16 11:06:07;;;;;;;15.38;3.05;;;11.40;99.90;;;;;;5009184;28;20033;-90
2022/02/16 11:08:35;;;;;;;13.23;2.72;;;11.40;99.90;;;;;;5006359;28;20546;-89
2022/02/16 11:11:05;;;;;;;15.98;2.55;;;11.40;99.90;;;;;;4995641;28;20492;-87
2022/02/16 11:13:32;;;;;;;16.42;2.83;;;11.50;99.90;;;;;;5006823;28;20656;-88
2022/02/16 11:16:00;;;;;;;16.05;2.75;;;11.40;99.90;;;;;;5012988;28;20099;-89
2022/02/16 11:18:28;;;;;;;10.93;2.67;;;11.40;99.90;;;;;;4993885;28;20029;-87
2022/02/16 11:21:07;;;;;;;13.43;2.50;;;11.40;99.90;;;;;;5008917;28;20112;-89
2022/02/16 11:23:47;;;;;;;11.27;2.65;;;11.40;99.90;;;;;;5018017;28;20115;-87
2022/02/16 11:26:37;;;;;;;19.17;2.97;;;11.40;99.90;;;;;;4996355;28;20094;-87
2022/02/16 11:29:25;;;;;;;12.40;2.30;;;11.50;99.90;;;;;;5009780;28;20036;-90
2022/02/16 11:32:15;;;;;;;15.15;2.75;;;11.50;99.90;;;;;;5012136;28;20110;-88
2022/02/16 11:34:45;;;;;;;15.73;2.50;;;11.50;99.90;;;;;;5005743;28;20053;-87
2022/02/16 11:37:11;;;;;;;15.93;2.38;;;11.60;99.90;;;;;;4993406;28;20048;-90
2022/02/16 11:39:49;;;;;;;11.85;2.33;;;11.60;99.90;;;;;;4990637;28;20057;-89
2022/02/16 11:42:38;;;;;;;12.32;2.42;;;11.70;99.90;;;;;;5009627;28;20047;-88
2022/02/16 11:45:09;;;;;;;13.82;2.88;;;11.70;99.90;;;;;;5006124;28;20033;-89
2022/02/16 11:47:39;;;;;;;21.90;2.95;;;11.70;99.90;;;;;;5009954;28;20044;-89
2022/02/16 11:50:14;;;;;;;14.93;3.05;;;11.80;99.90;;;;;;5012201;28;20075;-90
2022/02/16 11:53:00;;;;;;;13.02;2.35;;;11.80;99.90;;;;;;5003912;28;20044;-88
2022/02/16 11:55:40;;;;;;;11.75;2.60;;;11.80;99.90;;;;;;5010085;28;20045;-90
2022/02/16 11:58:12;;;;;;;15.73;2.67;;;11.70;99.90;;;;;;5014096;28;20506;-89
2022/02/16 12:00:40;;;;;;;16.65;2.38;;;11.80;99.90;;;;;;5014667;28;20107;-86
2022/02/16 12:03:14;;;;;;;23.67;2.90;;;11.80;99.90;;;;;;5009773;28;20413;-87
2022/02/16 12:06:03;;;;;;;16.65;2.35;;;11.70;99.90;;;;;;5009524;28;20131;-89
2022/02/16 12:08:36;;;;;;;19.08;2.80;;;11.70;99.90;;;;;;5028415;28;20033;-87
2022/02/16 12:11:22;;;;;;;14.20;2.63;;;11.70;99.90;;;;;;5012644;28;20076;-88
2022/02/16 12:14:01;;;;;;;17.92;2.92;;;11.70;99.90;;;;;;5005788;28;20041;-88
2022/02/16 12:16:43;;;;;;;14.45;2.63;;;11.70;99.90;;;;;;5015352;28;20037;-86
2022/02/16 12:19:16;;;;;;;21.05;3.10;;;11.70;99.90;;;;;;4994023;28;20044;-91
2022/02/16 12:21:52;;;;;;;12.40;2.58;;;11.60;99.90;;;;;;5024915;28;20389;-90
2022/02/16 12:24:24;;;;;;;15.73;2.90;;;11.60;99.90;;;;;;5006678;28;20411;-86
2022/02/16 12:26:58;;;;;;;20.47;3.03;;;11.60;99.90;;;;;;5006653;28;20135;-87
2022/02/16 12:29:43;;;;;;;18.65;3.00;;;11.60;99.90;;;;;;5011555;28;20502;-89
2022/02/16 12:32:19;;;;;;;16.60;2.83;;;11.60;99.90;;;;;;4981720;28;20097;-92
2022/02/16 12:34:47;;;;;;;16.63;3.15;;;11.60;99.90;;;;;;5000808;28;20098;-91
2022/02/16 12:37:20;;;;;;;17.55;2.58;;;11.60;99.90;;;;;;4987181;28;20047;-88
2022/02/16 12:40:04;;;;;;;17.95;3.53;;;11.50;99.90;;;;;;4976660;28;20037;-89
2022/02/16 12:42:41;;;;;;;12.68;2.70;;;11.50;99.90;;;;;;5008639;28;20037;-90
2022/02/16 12:45:08;;;;;;;15.25;2.55;;;11.50;99.90;;;;;;5008387;28;20048;-89